sensor_id;sensor_type;location;lat;lon;timestamp;P1;durP1;ratioP1;P2;durP2;ratioP2
83328;SDS011;73254;50.882;5.984;2023-12-14T00:00:03;34.50;;;15.35;;
83328;SDS011;73254;50.882;5.984;2023-12-14T00:02:28;34.70;;;15.63;;
83328;SDS011;73254;50.882;5.984;2023-12-14T00:04:53;37.50;;;15.27;;
83328;SDS011;73254;50.882;5.984;2023-12-14T00:07:19;30.70;;;14.57;;
83328;SDS011;73254;50.882;5.984;2023-12-14T00:09:47;34.17;;;14.95;;
83328;SDS011;73254;50.882;5.984;2023-12-14T00:12:12;33.00;;;14.43;;
83328;SDS011;73254;50.882;5.984;2023-12-14T00:14:37;32.50;;;14.50;;
83328;SDS011;73254;50.882;5.984;2023-12-14T00:17:02;32.33;;;14.30;;
83328;SDS011;73254;50.882;5.984;2023-12-14T00:19:27;32.80;;;15.00;;
83328;SDS011;73254;50.882;5.984;2023-12-14T00:21:52;28.47;;;13.47;;
83328;SDS011;73254;50.882;5.984;2023-12-14T00:24:18;29.37;;;13.80;;
83328;SDS011;73254;50.882;5.984;2023-12-14T00:26:43;32.03;;;14.50;;
83328;SDS011;73254;50.882;5.984;2023-12-14T00:29:08;31.70;;;13.37;;
83328;SDS011;73254;50.882;5.984;2023-12-14T00:31:33;30.90;;;13.83;;
83328;SDS011;73254;50.882;5.984;2023-12-14T00:33:58;29.83;;;13.70;;
83328;SDS011;73254;50.882;5.984;2023-12-14T00:36:24;35.13;;;14.20;;
83328;SDS011;73254;50.882;5.984;2023-12-14T00:38:49;29.27;;;14.70;;
83328;SDS011;73254;50.882;5.984;2023-12-14T00:41:14;34.63;;;14.90;;
83328;SDS011;73254;50.882;5.984;2023-12-14T00:43:40;30.43;;;13.60;;
83328;SDS011;73254;50.882;5.984;2023-12-14T00:46:05;31.17;;;14.30;;
83328;SDS011;73254;50.882;5.984;2023-12-14T00:48:30;30.73;;;13.17;;
83328;SDS011;73254;50.882;5.984;2023-12-14T00:50:55;31.93;;;14.37;;
83328;SDS011;73254;50.882;5.984;2023-12-14T00:53:21;32.57;;;14.50;;
83328;SDS011;73254;50.882;5.984;2023-12-14T00:55:46;35.17;;;15.03;;
83328;SDS011;73254;50.882;5.984;2023-12-14T00:58:11;35.20;;;15.60;;
83328;SDS011;73254;50.882;5.984;2023-12-14T01:00:38;33.77;;;14.47;;
83328;SDS011;73254;50.882;5.984;2023-12-14T01:03:03;37.13;;;15.43;;
83328;SDS011;73254;50.882;5.984;2023-12-14T01:05:28;36.17;;;15.90;;
83328;SDS011;73254;50.882;5.984;2023-12-14T01:07:53;40.90;;;15.80;;
83328;SDS011;73254;50.882;5.984;2023-12-14T01:10:19;39.07;;;15.77;;
83328;SDS011;73254;50.882;5.984;2023-12-14T01:12:44;41.00;;;16.20;;
83328;SDS011;73254;50.882;5.984;2023-12-14T01:15:09;40.20;;;16.17;;
83328;SDS011;73254;50.882;5.984;2023-12-14T01:17:34;41.50;;;16.20;;
83328;SDS011;73254;50.882;5.984;2023-12-14T01:20:03;37.08;;;15.35;;
83328;SDS011;73254;50.882;5.984;2023-12-14T01:22:32;36.78;;;15.70;;
83328;SDS011;73254;50.882;5.984;2023-12-14T01:24:57;41.30;;;16.07;;
83328;SDS011;73254;50.882;5.984;2023-12-14T01:27:22;42.80;;;16.20;;
83328;SDS011;73254;50.882;5.984;2023-12-14T01:29:47;40.93;;;16.47;;
83328;SDS011;73254;50.882;5.984;2023-12-14T01:32:13;40.67;;;16.00;;
83328;SDS011;73254;50.882;5.984;2023-12-14T01:34:41;44.22;;;16.90;;
83328;SDS011;73254;50.882;5.984;2023-12-14T01:37:07;41.13;;;16.70;;
83328;SDS011;73254;50.882;5.984;2023-12-14T01:39:32;48.37;;;18.03;;
83328;SDS011;73254;50.882;5.984;2023-12-14T01:41:57;48.67;;;17.13;;
83328;SDS011;73254;50.882;5.984;2023-12-14T01:44:22;47.70;;;17.47;;
83328;SDS011;73254;50.882;5.984;2023-12-14T01:46:48;47.47;;;17.60;;
83328;SDS011;73254;50.882;5.984;2023-12-14T01:49:13;50.20;;;17.40;;
83328;SDS011;73254;50.882;5.984;2023-12-14T01:51:38;43.47;;;15.23;;
83328;SDS011;73254;50.882;5.984;2023-12-14T01:54:03;40.60;;;14.67;;
83328;SDS011;73254;50.882;5.984;2023-12-14T01:56:28;40.63;;;14.10;;
83328;SDS011;73254;50.882;5.984;2023-12-14T01:58:56;38.20;;;13.83;;
83328;SDS011;73254;50.882;5.984;2023-12-14T02:04:06;34.92;;;13.15;;
83328;SDS011;73254;50.882;5.984;2023-12-14T02:06:32;33.92;;;12.80;;
83328;SDS011;73254;50.882;5.984;2023-12-14T02:08:57;34.17;;;12.97;;
83328;SDS011;73254;50.882;5.984;2023-12-14T02:11:22;34.40;;;12.00;;
83328;SDS011;73254;50.882;5.984;2023-12-14T02:13:56;32.00;;;12.57;;
83328;SDS011;73254;50.882;5.984;2023-12-14T02:16:22;30.40;;;12.25;;
83328;SDS011;73254;50.882;5.984;2023-12-14T02:18:47;31.03;;;11.90;;
83328;SDS011;73254;50.882;5.984;2023-12-14T02:21:12;28.63;;;11.47;;
83328;SDS011;73254;50.882;5.984;2023-12-14T02:23:44;31.40;;;11.90;;
83328;SDS011;73254;50.882;5.984;2023-12-14T02:26:09;28.70;;;11.20;;
83328;SDS011;73254;50.882;5.984;2023-12-14T02:28:35;29.90;;;11.00;;
83328;SDS011;73254;50.882;5.984;2023-12-14T02:31:00;29.20;;;11.63;;
83328;SDS011;73254;50.882;5.984;2023-12-14T02:33:25;25.13;;;10.30;;
83328;SDS011;73254;50.882;5.984;2023-12-14T02:35:50;25.07;;;10.63;;
83328;SDS011;73254;50.882;5.984;2023-12-14T02:38:15;23.80;;;9.93;;
83328;SDS011;73254;50.882;5.984;2023-12-14T02:40:41;24.00;;;9.50;;
83328;SDS011;73254;50.882;5.984;2023-12-14T02:43:06;25.03;;;9.83;;
83328;SDS011;73254;50.882;5.984;2023-12-14T02:45:31;22.90;;;9.53;;
83328;SDS011;73254;50.882;5.984;2023-12-14T02:47:56;18.93;;;8.53;;
83328;SDS011;73254;50.882;5.984;2023-12-14T02:50:21;20.57;;;8.90;;
83328;SDS011;73254;50.882;5.984;2023-12-14T02:52:47;21.17;;;9.00;;
83328;SDS011;73254;50.882;5.984;2023-12-14T02:55:12;22.03;;;9.30;;
83328;SDS011;73254;50.882;5.984;2023-12-14T02:57:37;22.20;;;9.37;;
83328;SDS011;73254;50.882;5.984;2023-12-14T03:00:02;21.17;;;9.13;;
83328;SDS011;73254;50.882;5.984;2023-12-14T03:02:28;23.30;;;9.57;;
83328;SDS011;73254;50.882;5.984;2023-12-14T03:04:53;21.73;;;8.63;;
83328;SDS011;73254;50.882;5.984;2023-12-14T03:07:21;22.83;;;9.20;;
83328;SDS011;73254;50.882;5.984;2023-12-14T03:09:46;20.90;;;8.60;;
83328;SDS011;73254;50.882;5.984;2023-12-14T03:12:11;21.57;;;9.13;;
83328;SDS011;73254;50.882;5.984;2023-12-14T03:14:37;23.30;;;9.00;;
83328;SDS011;73254;50.882;5.984;2023-12-14T03:17:02;24.53;;;10.37;;
83328;SDS011;73254;50.882;5.984;2023-12-14T03:19:27;23.98;;;9.88;;
83328;SDS011;73254;50.882;5.984;2023-12-14T03:21:53;25.37;;;9.77;;
83328;SDS011;73254;50.882;5.984;2023-12-14T03:24:18;23.43;;;9.90;;
83328;SDS011;73254;50.882;5.984;2023-12-14T03:26:43;23.63;;;9.27;;
83328;SDS011;73254;50.882;5.984;2023-12-14T03:29:08;24.33;;;10.03;;
83328;SDS011;73254;50.882;5.984;2023-12-14T03:31:34;25.67;;;10.73;;
83328;SDS011;73254;50.882;5.984;2023-12-14T03:34:00;22.00;;;9.48;;
83328;SDS011;73254;50.882;5.984;2023-12-14T03:36:25;24.43;;;9.67;;
83328;SDS011;73254;50.882;5.984;2023-12-14T03:38:53;23.80;;;9.73;;
83328;SDS011;73254;50.882;5.984;2023-12-14T03:41:18;24.00;;;9.87;;
83328;SDS011;73254;50.882;5.984;2023-12-14T03:43:44;24.10;;;9.87;;
83328;SDS011;73254;50.882;5.984;2023-12-14T03:46:09;23.37;;;9.90;;
83328;SDS011;73254;50.882;5.984;2023-12-14T03:48:34;23.70;;;10.03;;
83328;SDS011;73254;50.882;5.984;2023-12-14T03:51:03;20.43;;;8.43;;
83328;SDS011;73254;50.882;5.984;2023-12-14T03:53:28;21.35;;;9.13;;
83328;SDS011;73254;50.882;5.984;2023-12-14T03:55:54;23.37;;;9.23;;
83328;SDS011;73254;50.882;5.984;2023-12-14T03:58:19;22.33;;;9.33;;
83328;SDS011;73254;50.882;5.984;2023-12-14T04:00:44;23.83;;;9.97;;
83328;SDS011;73254;50.882;5.984;2023-12-14T04:03:09;23.13;;;9.80;;
83328;SDS011;73254;50.882;5.984;2023-12-14T04:05:35;24.10;;;10.33;;
83328;SDS011;73254;50.882;5.984;2023-12-14T04:08:00;22.20;;;8.97;;
83328;SDS011;73254;50.882;5.984;2023-12-14T04:10:25;24.60;;;9.60;;
83328;SDS011;73254;50.882;5.984;2023-12-14T04:12:51;23.33;;;9.67;;
83328;SDS011;73254;50.882;5.984;2023-12-14T04:15:16;25.43;;;9.43;;
83328;SDS011;73254;50.882;5.984;2023-12-14T04:17:41;25.00;;;10.00;;
83328;SDS011;73254;50.882;5.984;2023-12-14T04:20:06;24.07;;;9.20;;
83328;SDS011;73254;50.882;5.984;2023-12-14T04:22:32;23.27;;;9.40;;
83328;SDS011;73254;50.882;5.984;2023-12-14T04:24:57;24.27;;;9.13;;
83328;SDS011;73254;50.882;5.984;2023-12-14T04:27:22;24.30;;;9.33;;
83328;SDS011;73254;50.882;5.984;2023-12-14T04:29:52;24.70;;;8.70;;
83328;SDS011;73254;50.882;5.984;2023-12-14T04:32:17;23.43;;;8.67;;
83328;SDS011;73254;50.882;5.984;2023-12-14T04:34:42;21.87;;;8.17;;
83328;SDS011;73254;50.882;5.984;2023-12-14T04:37:07;24.70;;;9.13;;
83328;SDS011;73254;50.882;5.984;2023-12-14T04:39:35;24.27;;;8.90;;
83328;SDS011;73254;50.882;5.984;2023-12-14T04:42:00;24.58;;;9.07;;
83328;SDS011;73254;50.882;5.984;2023-12-14T04:44:26;22.73;;;8.80;;
83328;SDS011;73254;50.882;5.984;2023-12-14T04:46:51;24.77;;;9.60;;
83328;SDS011;73254;50.882;5.984;2023-12-14T04:49:19;25.30;;;9.45;;
83328;SDS011;73254;50.882;5.984;2023-12-14T04:51:44;25.67;;;9.55;;
83328;SDS011;73254;50.882;5.984;2023-12-14T04:54:10;23.03;;;9.67;;
83328;SDS011;73254;50.882;5.984;2023-12-14T04:56:35;28.27;;;9.77;;
83328;SDS011;73254;50.882;5.984;2023-12-14T04:59:00;24.00;;;9.50;;
83328;SDS011;73254;50.882;5.984;2023-12-14T05:01:26;24.77;;;9.30;;
83328;SDS011;73254;50.882;5.984;2023-12-14T05:04:00;24.80;;;9.70;;
83328;SDS011;73254;50.882;5.984;2023-12-14T05:06:25;23.15;;;9.32;;
83328;SDS011;73254;50.882;5.984;2023-12-14T05:08:51;22.58;;;9.57;;
83328;SDS011;73254;50.882;5.984;2023-12-14T05:11:16;23.73;;;9.40;;
83328;SDS011;73254;50.882;5.984;2023-12-14T05:13:41;21.80;;;8.80;;
83328;SDS011;73254;50.882;5.984;2023-12-14T05:16:06;22.43;;;8.20;;
83328;SDS011;73254;50.882;5.984;2023-12-14T05:18:32;20.50;;;8.40;;
83328;SDS011;73254;50.882;5.984;2023-12-14T05:20:57;17.50;;;7.27;;
83328;SDS011;73254;50.882;5.984;2023-12-14T05:23:22;19.73;;;7.57;;
83328;SDS011;73254;50.882;5.984;2023-12-14T05:25:49;18.85;;;8.00;;
83328;SDS011;73254;50.882;5.984;2023-12-14T05:28:14;17.43;;;7.57;;
83328;SDS011;73254;50.882;5.984;2023-12-14T05:30:39;18.60;;;7.33;;
83328;SDS011;73254;50.882;5.984;2023-12-14T05:33:04;17.67;;;7.27;;
83328;SDS011;73254;50.882;5.984;2023-12-14T05:35:29;18.10;;;7.70;;
83328;SDS011;73254;50.882;5.984;2023-12-14T05:37:55;19.30;;;7.47;;
83328;SDS011;73254;50.882;5.984;2023-12-14T05:40:20;18.60;;;7.80;;
83328;SDS011;73254;50.882;5.984;2023-12-14T05:42:45;18.87;;;7.90;;
83328;SDS011;73254;50.882;5.984;2023-12-14T05:45:10;18.73;;;8.23;;
83328;SDS011;73254;50.882;5.984;2023-12-14T05:47:35;20.03;;;7.33;;
83328;SDS011;73254;50.882;5.984;2023-12-14T05:50:01;20.50;;;8.30;;
83328;SDS011;73254;50.882;5.984;2023-12-14T05:52:26;22.43;;;8.67;;
83328;SDS011;73254;50.882;5.984;2023-12-14T05:54:51;22.17;;;8.35;;
83328;SDS011;73254;50.882;5.984;2023-12-14T05:57:17;20.37;;;8.40;;
83328;SDS011;73254;50.882;5.984;2023-12-14T05:59:42;20.73;;;8.27;;
83328;SDS011;73254;50.882;5.984;2023-12-14T06:02:07;21.27;;;8.30;;
83328;SDS011;73254;50.882;5.984;2023-12-14T06:04:33;20.57;;;7.90;;
83328;SDS011;73254;50.882;5.984;2023-12-14T06:06:58;20.23;;;7.40;;
83328;SDS011;73254;50.882;5.984;2023-12-14T06:09:23;20.20;;;7.80;;
83328;SDS011;73254;50.882;5.984;2023-12-14T06:11:54;20.17;;;7.72;;
83328;SDS011;73254;50.882;5.984;2023-12-14T06:14:22;22.10;;;8.90;;
83328;SDS011;73254;50.882;5.984;2023-12-14T06:16:47;21.63;;;8.15;;
83328;SDS011;73254;50.882;5.984;2023-12-14T06:19:12;23.57;;;8.17;;
83328;SDS011;73254;50.882;5.984;2023-12-14T06:21:38;20.10;;;7.80;;
83328;SDS011;73254;50.882;5.984;2023-12-14T06:24:03;21.30;;;8.07;;
83328;SDS011;73254;50.882;5.984;2023-12-14T06:26:28;21.97;;;7.80;;
83328;SDS011;73254;50.882;5.984;2023-12-14T06:28:54;22.33;;;8.53;;
83328;SDS011;73254;50.882;5.984;2023-12-14T06:31:19;21.13;;;8.13;;
83328;SDS011;73254;50.882;5.984;2023-12-14T06:33:49;21.58;;;7.75;;
83328;SDS011;73254;50.882;5.984;2023-12-14T06:36:18;21.92;;;9.20;;
83328;SDS011;73254;50.882;5.984;2023-12-14T06:38:43;17.05;;;7.50;;
83328;SDS011;73254;50.882;5.984;2023-12-14T06:41:08;17.93;;;7.83;;
83328;SDS011;73254;50.882;5.984;2023-12-14T06:43:42;17.30;;;6.60;;
83328;SDS011;73254;50.882;5.984;2023-12-14T06:46:08;18.87;;;7.00;;
83328;SDS011;73254;50.882;5.984;2023-12-14T06:48:33;18.13;;;7.10;;
83328;SDS011;73254;50.882;5.984;2023-12-14T06:50:58;17.87;;;7.20;;
83328;SDS011;73254;50.882;5.984;2023-12-14T06:53:23;19.27;;;7.17;;
83328;SDS011;73254;50.882;5.984;2023-12-14T06:55:49;21.70;;;8.57;;
83328;SDS011;73254;50.882;5.984;2023-12-14T06:58:14;20.73;;;7.77;;
83328;SDS011;73254;50.882;5.984;2023-12-14T07:00:40;22.58;;;8.45;;
83328;SDS011;73254;50.882;5.984;2023-12-14T07:03:05;25.10;;;9.10;;
83328;SDS011;73254;50.882;5.984;2023-12-14T07:05:30;22.93;;;8.87;;
83328;SDS011;73254;50.882;5.984;2023-12-14T07:07:57;22.52;;;7.85;;
83328;SDS011;73254;50.882;5.984;2023-12-14T07:10:22;21.83;;;8.57;;
83328;SDS011;73254;50.882;5.984;2023-12-14T07:12:47;21.10;;;7.97;;
83328;SDS011;73254;50.882;5.984;2023-12-14T07:15:13;25.73;;;8.67;;
83328;SDS011;73254;50.882;5.984;2023-12-14T07:17:38;21.97;;;7.93;;
83328;SDS011;73254;50.882;5.984;2023-12-14T07:20:03;23.10;;;8.70;;
83328;SDS011;73254;50.882;5.984;2023-12-14T07:22:29;24.48;;;8.93;;
83328;SDS011;73254;50.882;5.984;2023-12-14T07:24:54;24.80;;;9.20;;
83328;SDS011;73254;50.882;5.984;2023-12-14T07:27:19;24.47;;;9.63;;
83328;SDS011;73254;50.882;5.984;2023-12-14T07:29:45;24.73;;;9.70;;
83328;SDS011;73254;50.882;5.984;2023-12-14T07:32:10;25.53;;;9.50;;
83328;SDS011;73254;50.882;5.984;2023-12-14T07:34:35;23.43;;;9.30;;
83328;SDS011;73254;50.882;5.984;2023-12-14T07:37:00;26.33;;;9.97;;
83328;SDS011;73254;50.882;5.984;2023-12-14T07:39:26;25.10;;;10.03;;
83328;SDS011;73254;50.882;5.984;2023-12-14T07:41:51;25.90;;;10.07;;
83328;SDS011;73254;50.882;5.984;2023-12-14T07:44:16;25.77;;;10.43;;
83328;SDS011;73254;50.882;5.984;2023-12-14T07:46:41;25.80;;;10.40;;
83328;SDS011;73254;50.882;5.984;2023-12-14T07:49:08;28.13;;;10.15;;
83328;SDS011;73254;50.882;5.984;2023-12-14T07:51:33;23.23;;;8.93;;
83328;SDS011;73254;50.882;5.984;2023-12-14T07:53:58;25.43;;;9.40;;
83328;SDS011;73254;50.882;5.984;2023-12-14T07:56:23;25.30;;;9.97;;
83328;SDS011;73254;50.882;5.984;2023-12-14T07:58:52;24.20;;;9.25;;
83328;SDS011;73254;50.882;5.984;2023-12-14T08:01:17;23.30;;;9.30;;
83328;SDS011;73254;50.882;5.984;2023-12-14T08:03:42;24.13;;;8.97;;
83328;SDS011;73254;50.882;5.984;2023-12-14T08:06:08;25.33;;;9.87;;
83328;SDS011;73254;50.882;5.984;2023-12-14T08:08:33;22.70;;;8.70;;
83328;SDS011;73254;50.882;5.984;2023-12-14T08:10:58;22.20;;;9.50;;
83328;SDS011;73254;50.882;5.984;2023-12-14T08:13:23;24.13;;;9.50;;
83328;SDS011;73254;50.882;5.984;2023-12-14T08:15:49;24.37;;;9.80;;
83328;SDS011;73254;50.882;5.984;2023-12-14T08:18:14;22.80;;;9.10;;
83328;SDS011;73254;50.882;5.984;2023-12-14T08:20:39;22.93;;;9.23;;
83328;SDS011;73254;50.882;5.984;2023-12-14T08:23:04;23.63;;;9.10;;
83328;SDS011;73254;50.882;5.984;2023-12-14T08:25:29;22.77;;;8.97;;
83328;SDS011;73254;50.882;5.984;2023-12-14T08:27:55;22.43;;;9.47;;
83328;SDS011;73254;50.882;5.984;2023-12-14T08:30:20;21.43;;;9.03;;
83328;SDS011;73254;50.882;5.984;2023-12-14T08:32:46;22.37;;;8.90;;
83328;SDS011;73254;50.882;5.984;2023-12-14T08:35:11;19.87;;;8.30;;
83328;SDS011;73254;50.882;5.984;2023-12-14T08:37:36;21.93;;;9.07;;
83328;SDS011;73254;50.882;5.984;2023-12-14T08:40:02;20.97;;;8.77;;
83328;SDS011;73254;50.882;5.984;2023-12-14T08:42:28;23.75;;;9.07;;
83328;SDS011;73254;50.882;5.984;2023-12-14T08:44:54;21.10;;;8.70;;
83328;SDS011;73254;50.882;5.984;2023-12-14T08:47:19;22.33;;;8.90;;
83328;SDS011;73254;50.882;5.984;2023-12-14T08:49:44;18.97;;;8.30;;
83328;SDS011;73254;50.882;5.984;2023-12-14T08:52:09;20.07;;;8.77;;
83328;SDS011;73254;50.882;5.984;2023-12-14T08:54:36;19.25;;;8.48;;
83328;SDS011;73254;50.882;5.984;2023-12-14T08:57:01;20.33;;;8.60;;
83328;SDS011;73254;50.882;5.984;2023-12-14T08:59:36;21.17;;;8.52;;
83328;SDS011;73254;50.882;5.984;2023-12-14T09:02:01;19.47;;;8.47;;
83328;SDS011;73254;50.882;5.984;2023-12-14T09:04:27;20.10;;;8.80;;
83328;SDS011;73254;50.882;5.984;2023-12-14T09:06:52;18.83;;;8.10;;
83328;SDS011;73254;50.882;5.984;2023-12-14T09:09:20;19.03;;;8.07;;
83328;SDS011;73254;50.882;5.984;2023-12-14T09:11:46;18.48;;;7.68;;
83328;SDS011;73254;50.882;5.984;2023-12-14T09:14:11;19.20;;;8.13;;
83328;SDS011;73254;50.882;5.984;2023-12-14T09:16:36;20.03;;;8.73;;
83328;SDS011;73254;50.882;5.984;2023-12-14T09:19:01;20.90;;;8.67;;
83328;SDS011;73254;50.882;5.984;2023-12-14T09:21:26;20.00;;;8.73;;
83328;SDS011;73254;50.882;5.984;2023-12-14T09:23:52;18.80;;;8.67;;
83328;SDS011;73254;50.882;5.984;2023-12-14T09:26:18;19.57;;;8.53;;
83328;SDS011;73254;50.882;5.984;2023-12-14T09:28:44;20.90;;;8.35;;
83328;SDS011;73254;50.882;5.984;2023-12-14T09:31:09;20.33;;;8.80;;
83328;SDS011;73254;50.882;5.984;2023-12-14T09:33:34;21.47;;;8.60;;
83328;SDS011;73254;50.882;5.984;2023-12-14T09:35:59;19.80;;;8.50;;
83328;SDS011;73254;50.882;5.984;2023-12-14T09:38:24;20.73;;;8.33;;
83328;SDS011;73254;50.882;5.984;2023-12-14T09:40:50;21.07;;;8.70;;
83328;SDS011;73254;50.882;5.984;2023-12-14T09:43:15;23.50;;;9.27;;
83328;SDS011;73254;50.882;5.984;2023-12-14T09:45:40;20.87;;;9.43;;
83328;SDS011;73254;50.882;5.984;2023-12-14T09:48:09;22.58;;;9.38;;
83328;SDS011;73254;50.882;5.984;2023-12-14T09:50:35;20.53;;;9.30;;
83328;SDS011;73254;50.882;5.984;2023-12-14T09:53:00;20.80;;;8.57;;
83328;SDS011;73254;50.882;5.984;2023-12-14T09:55:26;20.38;;;8.88;;
83328;SDS011;73254;50.882;5.984;2023-12-14T09:57:51;21.90;;;8.80;;
83328;SDS011;73254;50.882;5.984;2023-12-14T10:00:32;22.83;;;9.57;;
83328;SDS011;73254;50.882;5.984;2023-12-14T10:03:00;22.55;;;9.02;;
83328;SDS011;73254;50.882;5.984;2023-12-14T10:05:42;19.60;;;8.33;;
83328;SDS011;73254;50.882;5.984;2023-12-14T10:08:07;20.95;;;8.68;;
83328;SDS011;73254;50.882;5.984;2023-12-14T10:10:32;20.70;;;8.77;;
83328;SDS011;73254;50.882;5.984;2023-12-14T10:12:57;19.00;;;8.17;;
83328;SDS011;73254;50.882;5.984;2023-12-14T10:15:23;20.23;;;8.80;;
83328;SDS011;73254;50.882;5.984;2023-12-14T10:17:52;22.57;;;8.40;;
83328;SDS011;73254;50.882;5.984;2023-12-14T10:20:22;21.05;;;9.43;;
83328;SDS011;73254;50.882;5.984;2023-12-14T10:22:47;21.77;;;9.45;;
83328;SDS011;73254;50.882;5.984;2023-12-14T10:25:14;19.25;;;8.38;;
83328;SDS011;73254;50.882;5.984;2023-12-14T10:27:39;20.67;;;8.60;;
83328;SDS011;73254;50.882;5.984;2023-12-14T10:30:05;18.93;;;8.23;;
83328;SDS011;73254;50.882;5.984;2023-12-14T10:32:30;20.83;;;8.98;;
83328;SDS011;73254;50.882;5.984;2023-12-14T10:34:56;21.57;;;8.73;;
83328;SDS011;73254;50.882;5.984;2023-12-14T10:37:21;19.87;;;8.70;;
83328;SDS011;73254;50.882;5.984;2023-12-14T10:39:46;20.10;;;8.07;;
83328;SDS011;73254;50.882;5.984;2023-12-14T10:42:13;21.65;;;8.55;;
83328;SDS011;73254;50.882;5.984;2023-12-14T10:44:41;18.75;;;8.20;;
83328;SDS011;73254;50.882;5.984;2023-12-14T10:47:06;19.37;;;8.30;;
83328;SDS011;73254;50.882;5.984;2023-12-14T10:49:32;18.00;;;7.95;;
83328;SDS011;73254;50.882;5.984;2023-12-14T10:52:00;19.03;;;8.13;;
83328;SDS011;73254;50.882;5.984;2023-12-14T10:54:27;18.38;;;7.97;;
83328;SDS011;73254;50.882;5.984;2023-12-14T10:56:56;17.83;;;7.50;;
83328;SDS011;73254;50.882;5.984;2023-12-14T10:59:24;18.42;;;7.28;;
83328;SDS011;73254;50.882;5.984;2023-12-14T11:01:53;18.57;;;7.73;;
83328;SDS011;73254;50.882;5.984;2023-12-14T11:04:18;16.08;;;6.93;;
83328;SDS011;73254;50.882;5.984;2023-12-14T11:06:45;18.60;;;7.50;;
83328;SDS011;73254;50.882;5.984;2023-12-14T11:09:13;17.35;;;7.60;;
83328;SDS011;73254;50.882;5.984;2023-12-14T11:11:40;17.70;;;6.88;;
83328;SDS011;73254;50.882;5.984;2023-12-14T11:14:07;17.55;;;7.20;;
83328;SDS011;73254;50.882;5.984;2023-12-14T11:16:33;17.33;;;7.13;;
83328;SDS011;73254;50.882;5.984;2023-12-14T11:21:42;18.57;;;7.63;;
83328;SDS011;73254;50.882;5.984;2023-12-14T11:24:07;18.20;;;7.70;;
83328;SDS011;73254;50.882;5.984;2023-12-14T11:26:33;18.47;;;7.83;;
83328;SDS011;73254;50.882;5.984;2023-12-14T11:28:58;19.17;;;8.13;;
83328;SDS011;73254;50.882;5.984;2023-12-14T11:31:24;19.27;;;7.57;;
83328;SDS011;73254;50.882;5.984;2023-12-14T11:33:49;23.00;;;8.17;;
83328;SDS011;73254;50.882;5.984;2023-12-14T11:36:14;21.60;;;8.40;;
83328;SDS011;73254;50.882;5.984;2023-12-14T11:38:40;20.20;;;8.50;;
83328;SDS011;73254;50.882;5.984;2023-12-14T11:41:06;20.83;;;8.53;;
83328;SDS011;73254;50.882;5.984;2023-12-14T11:43:41;20.40;;;8.50;;
83328;SDS011;73254;50.882;5.984;2023-12-14T11:46:06;21.27;;;8.60;;
83328;SDS011;73254;50.882;5.984;2023-12-14T11:48:31;21.55;;;9.25;;
83328;SDS011;73254;50.882;5.984;2023-12-14T11:50:57;19.30;;;8.23;;
83328;SDS011;73254;50.882;5.984;2023-12-14T11:53:22;21.20;;;9.07;;
83328;SDS011;73254;50.882;5.984;2023-12-14T11:55:48;17.23;;;7.90;;
83328;SDS011;73254;50.882;5.984;2023-12-14T11:58:16;18.87;;;7.90;;
83328;SDS011;73254;50.882;5.984;2023-12-14T12:00:42;20.77;;;7.78;;
83328;SDS011;73254;50.882;5.984;2023-12-14T12:05:39;20.88;;;8.50;;
83328;SDS011;73254;50.882;5.984;2023-12-14T12:08:05;19.92;;;8.55;;
83328;SDS011;73254;50.882;5.984;2023-12-14T12:10:30;20.57;;;8.60;;
83328;SDS011;73254;50.882;5.984;2023-12-14T12:13:00;19.60;;;7.80;;
83328;SDS011;73254;50.882;5.984;2023-12-14T12:15:25;20.83;;;8.38;;
83328;SDS011;73254;50.882;5.984;2023-12-14T12:17:51;19.53;;;7.47;;
83328;SDS011;73254;50.882;5.984;2023-12-14T12:20:16;15.90;;;7.03;;
83328;SDS011;73254;50.882;5.984;2023-12-14T12:22:41;15.27;;;6.70;;
83328;SDS011;73254;50.882;5.984;2023-12-14T12:25:06;17.43;;;7.17;;
83328;SDS011;73254;50.882;5.984;2023-12-14T12:27:32;16.33;;;6.73;;
83328;SDS011;73254;50.882;5.984;2023-12-14T12:29:57;15.93;;;7.00;;
83328;SDS011;73254;50.882;5.984;2023-12-14T12:32:22;17.80;;;6.80;;
83328;SDS011;73254;50.882;5.984;2023-12-14T12:34:47;16.20;;;6.38;;
83328;SDS011;73254;50.882;5.984;2023-12-14T12:37:13;14.50;;;6.73;;
83328;SDS011;73254;50.882;5.984;2023-12-14T12:39:38;17.13;;;7.70;;
83328;SDS011;73254;50.882;5.984;2023-12-14T12:42:04;17.10;;;7.37;;
83328;SDS011;73254;50.882;5.984;2023-12-14T12:44:29;15.17;;;6.57;;
83328;SDS011;73254;50.882;5.984;2023-12-14T12:46:57;15.88;;;6.70;;
83328;SDS011;73254;50.882;5.984;2023-12-14T12:49:23;14.23;;;6.15;;
83328;SDS011;73254;50.882;5.984;2023-12-14T12:51:49;14.13;;;6.17;;
83328;SDS011;73254;50.882;5.984;2023-12-14T12:54:14;14.37;;;6.23;;
83328;SDS011;73254;50.882;5.984;2023-12-14T12:56:39;13.70;;;5.63;;
83328;SDS011;73254;50.882;5.984;2023-12-14T12:59:04;15.00;;;6.00;;
83328;SDS011;73254;50.882;5.984;2023-12-14T13:01:30;11.60;;;5.20;;
83328;SDS011;73254;50.882;5.984;2023-12-14T13:03:55;14.87;;;5.83;;
83328;SDS011;73254;50.882;5.984;2023-12-14T13:06:23;13.43;;;5.45;;
83328;SDS011;73254;50.882;5.984;2023-12-14T13:08:48;12.40;;;5.32;;
83328;SDS011;73254;50.882;5.984;2023-12-14T13:11:13;12.37;;;5.73;;
83328;SDS011;73254;50.882;5.984;2023-12-14T13:13:39;12.77;;;5.50;;
83328;SDS011;73254;50.882;5.984;2023-12-14T13:16:05;10.48;;;5.03;;
83328;SDS011;73254;50.882;5.984;2023-12-14T13:18:30;10.27;;;5.03;;
83328;SDS011;73254;50.882;5.984;2023-12-14T13:20:55;11.70;;;4.75;;
83328;SDS011;73254;50.882;5.984;2023-12-14T13:23:20;10.20;;;4.73;;
83328;SDS011;73254;50.882;5.984;2023-12-14T13:25:46;11.53;;;4.87;;
83328;SDS011;73254;50.882;5.984;2023-12-14T13:28:11;12.43;;;4.93;;
83328;SDS011;73254;50.882;5.984;2023-12-14T13:30:37;11.20;;;4.97;;
83328;SDS011;73254;50.882;5.984;2023-12-14T13:33:02;11.43;;;5.37;;
83328;SDS011;73254;50.882;5.984;2023-12-14T13:35:29;11.10;;;4.93;;
83328;SDS011;73254;50.882;5.984;2023-12-14T13:37:54;11.98;;;5.13;;
83328;SDS011;73254;50.882;5.984;2023-12-14T13:40:19;9.87;;;5.07;;
83328;SDS011;73254;50.882;5.984;2023-12-14T13:42:45;10.87;;;4.70;;
83328;SDS011;73254;50.882;5.984;2023-12-14T13:45:10;10.27;;;4.63;;
83328;SDS011;73254;50.882;5.984;2023-12-14T13:47:35;9.67;;;4.13;;
83328;SDS011;73254;50.882;5.984;2023-12-14T13:50:00;10.60;;;4.57;;
83328;SDS011;73254;50.882;5.984;2023-12-14T13:52:28;9.93;;;4.85;;
83328;SDS011;73254;50.882;5.984;2023-12-14T13:54:53;10.87;;;4.97;;
83328;SDS011;73254;50.882;5.984;2023-12-14T13:57:21;10.25;;;4.65;;
83328;SDS011;73254;50.882;5.984;2023-12-14T13:59:47;9.37;;;4.60;;
83328;SDS011;73254;50.882;5.984;2023-12-14T14:02:12;10.73;;;4.60;;
83328;SDS011;73254;50.882;5.984;2023-12-14T14:04:38;10.23;;;4.40;;
83328;SDS011;73254;50.882;5.984;2023-12-14T14:07:03;11.37;;;4.57;;
83328;SDS011;73254;50.882;5.984;2023-12-14T14:09:28;9.67;;;4.60;;
83328;SDS011;73254;50.882;5.984;2023-12-14T14:11:54;10.23;;;4.47;;
83328;SDS011;73254;50.882;5.984;2023-12-14T14:14:22;9.40;;;4.53;;
83328;SDS011;73254;50.882;5.984;2023-12-14T14:16:48;8.77;;;3.90;;
83328;SDS011;73254;50.882;5.984;2023-12-14T14:19:16;11.20;;;4.78;;
83328;SDS011;73254;50.882;5.984;2023-12-14T14:21:41;11.17;;;5.10;;
83328;SDS011;73254;50.882;5.984;2023-12-14T14:24:06;9.10;;;4.57;;
83328;SDS011;73254;50.882;5.984;2023-12-14T14:26:31;10.70;;;5.03;;
83328;SDS011;73254;50.882;5.984;2023-12-14T14:28:57;8.90;;;4.20;;
83328;SDS011;73254;50.882;5.984;2023-12-14T14:31:25;9.98;;;4.38;;